createdAt,value
2018-12-23T00:01:12.161Z,5.50
2018-12-23T00:02:53.668Z,5.46
2018-12-23T00:04:31.813Z,5.47
2018-12-23T00:06:14.053Z,5.47
2018-12-23T00:07:57.173Z,5.45
2018-12-23T00:09:38.321Z,5.43
2018-12-23T00:11:14.862Z,5.44
2018-12-23T00:12:59.477Z,5.44
2018-12-23T00:14:35.562Z,5.43
2018-12-23T00:16:13.980Z,5.45
2018-12-23T00:17:49.803Z,5.42
2018-12-23T00:19:25.205Z,5.43
2018-12-23T00:21:00.835Z,5.44
2018-12-23T00:22:39.312Z,5.44
2018-12-23T00:24:14.723Z,5.41
2018-12-23T00:25:50.217Z,5.44
2018-12-23T00:27:27.513Z,5.43
2018-12-23T00:29:04.076Z,5.41
2018-12-23T00:30:46.507Z,5.41
2018-12-23T00:32:28.847Z,5.40
2018-12-23T00:34:09.723Z,5.40
2018-12-23T00:35:51.905Z,5.41
2018-12-23T00:37:30.408Z,5.42
2018-12-23T00:39:08.211Z,5.42
2018-12-23T00:40:44.178Z,5.42
2018-12-23T00:42:21.044Z,5.43
2018-12-23T00:46:03.764Z,5.41
2018-12-23T00:47:45.040Z,5.42
2018-12-23T00:49:23.833Z,5.43
2018-12-23T00:51:00.219Z,5.43
2018-12-23T00:52:37.978Z,5.43
2018-12-23T00:54:23.253Z,5.44
2018-12-23T00:56:08.193Z,5.42
2018-12-23T00:57:44.237Z,5.42
2018-12-23T00:59:23.214Z,5.42
2018-12-23T01:01:00.574Z,5.41
2018-12-23T01:02:40.035Z,5.42
2018-12-23T01:04:18.809Z,5.43
2018-12-23T01:05:57.597Z,5.45
2018-12-23T01:07:34.848Z,5.44
2018-12-23T01:09:16.139Z,5.43
2018-12-23T01:10:51.959Z,5.45
2018-12-23T01:12:27.893Z,5.46
2018-12-23T01:14:07.428Z,5.46
2018-12-23T01:15:43.630Z,5.45
2018-12-23T01:17:21.721Z,5.48
2018-12-23T01:18:57.421Z,5.48
2018-12-23T01:20:33.090Z,5.47
2018-12-23T01:22:09.629Z,5.47
2018-12-23T01:23:45.961Z,5.47
2018-12-23T01:25:23.402Z,5.49
2018-12-23T01:26:58.897Z,5.49
2018-12-23T01:28:36.518Z,5.48
2018-12-23T01:30:13.467Z,5.49
2018-12-23T01:31:49.008Z,5.49
2018-12-23T01:33:24.921Z,5.46
2018-12-23T01:35:00.706Z,5.39
2018-12-23T01:36:38.915Z,5.38
2018-12-23T01:38:15.676Z,5.32
2018-12-23T01:39:52.478Z,5.30
2018-12-23T01:41:27.933Z,5.27
2018-12-23T01:43:03.915Z,5.26
2018-12-23T01:44:40.417Z,5.25
2018-12-23T01:46:15.874Z,5.23
2018-12-23T01:47:54.251Z,5.23
2018-12-23T01:49:30.394Z,5.22
2018-12-23T01:51:05.966Z,5.24
2018-12-23T01:52:42.910Z,5.24
2018-12-23T01:54:18.396Z,5.22
2018-12-23T01:55:54.744Z,5.22
2018-12-23T01:57:30.838Z,5.22
2018-12-23T01:59:08.467Z,5.21
2018-12-23T02:00:44.135Z,5.20
2018-12-23T02:02:19.379Z,5.21
2018-12-23T02:03:55.707Z,5.22
2018-12-23T02:05:32.481Z,5.24
2018-12-23T02:07:09.809Z,5.24
2018-12-23T02:08:45.619Z,5.25
2018-12-23T02:10:23.125Z,5.24
2018-12-23T02:11:59.251Z,5.25
2018-12-23T02:13:35.821Z,5.25
2018-12-23T02:15:13.714Z,5.27
2018-12-23T02:16:56.665Z,5.26
2018-12-23T02:18:38.757Z,5.28
2018-12-23T02:20:17.774Z,5.29
2018-12-23T02:21:55.375Z,5.29
2018-12-23T02:23:33.953Z,5.29
2018-12-23T02:25:12.942Z,5.32
2018-12-23T02:26:53.511Z,5.31
2018-12-23T02:28:29.550Z,5.32
2018-12-23T02:30:12.851Z,5.33
2018-12-23T02:31:53.783Z,5.33
2018-12-23T02:33:32.504Z,5.34
2018-12-23T02:35:13.141Z,5.33
2018-12-23T02:36:54.444Z,5.34
2018-12-23T02:38:32.849Z,5.34
2018-12-23T02:40:13.976Z,5.33
2018-12-23T02:41:50.357Z,5.34
2018-12-23T02:43:25.485Z,5.34
2018-12-23T02:45:05.087Z,5.34
2018-12-23T02:46:40.409Z,5.33
2018-12-23T02:48:16.977Z,5.34
2018-12-23T02:49:52.229Z,5.32
2018-12-23T02:51:27.379Z,5.31
2018-12-23T02:53:03.199Z,5.32
2018-12-23T02:54:39.887Z,5.30
2018-12-23T02:56:15.688Z,5.31
2018-12-23T02:57:52.809Z,5.32
2018-12-23T02:59:29.439Z,5.34
2018-12-23T03:01:05.050Z,5.31
2018-12-23T03:02:40.420Z,5.34
2018-12-23T03:04:15.795Z,5.32
2018-12-23T03:05:50.827Z,5.29
2018-12-23T03:07:26.893Z,5.29
2018-12-23T03:09:03.106Z,5.30
2018-12-23T03:10:39.094Z,5.32
2018-12-23T03:12:16.321Z,5.32
2018-12-23T03:13:53.014Z,5.32
2018-12-23T03:22:12.980Z,5.33
2018-12-23T03:24:22.989Z,5.32
2018-12-23T03:27:57.528Z,5.33
2018-12-23T03:31:53.069Z,5.31
2018-12-23T03:33:29.154Z,5.32
2018-12-23T03:35:08.417Z,5.30
2018-12-23T03:46:41.775Z,5.33
2018-12-23T03:48:07.802Z,5.34
2018-12-23T03:49:55.147Z,5.35
2018-12-23T03:52:10.028Z,5.34
2018-12-23T03:53:48.204Z,5.33
2018-12-23T03:55:35.127Z,5.35
2018-12-23T03:57:22.894Z,5.34
2018-12-23T03:59:40.058Z,5.33
2018-12-23T04:01:28.232Z,5.31
2018-12-23T04:03:04.022Z,5.31
2018-12-23T04:04:39.649Z,5.31
2018-12-23T04:10:08.827Z,5.33
2018-12-23T04:11:45.759Z,5.30
2018-12-23T04:19:32.011Z,5.30
2018-12-23T04:23:22.265Z,5.30
2018-12-23T04:24:58.466Z,5.29
2018-12-23T04:28:47.599Z,5.31
2018-12-23T04:34:47.159Z,5.32
2018-12-23T04:36:23.331Z,5.33
2018-12-23T04:38:38.115Z,5.34
2018-12-23T04:40:13.936Z,5.33
2018-12-23T04:42:08.675Z,5.34
2018-12-23T04:46:38.125Z,5.36
2018-12-23T04:52:41.361Z,5.38
2018-12-23T04:56:27.974Z,5.42
2018-12-23T04:58:35.184Z,5.44
2018-12-23T05:02:49.138Z,5.45
2018-12-23T05:06:52.169Z,5.43
2018-12-23T05:10:24.439Z,5.44
2018-12-23T05:11:47.850Z,5.44
2018-12-23T05:13:26.964Z,5.43
2018-12-23T05:15:53.452Z,5.45
2018-12-23T05:23:43.040Z,5.39
2018-12-23T05:25:37.913Z,5.38
2018-12-23T05:27:13.899Z,5.38
2018-12-23T05:28:49.944Z,5.38
2018-12-23T05:32:32.697Z,5.36
2018-12-23T05:34:19.690Z,5.34
2018-12-23T05:36:08.258Z,5.37
2018-12-23T05:39:43.994Z,5.36
2018-12-23T05:41:31.166Z,5.37
2018-12-23T05:43:07.214Z,5.34
2018-12-23T05:45:21.984Z,5.40
2018-12-23T05:51:01.717Z,5.36
2018-12-23T05:58:26.424Z,5.34
2018-12-23T06:00:32.905Z,5.35
2018-12-23T06:01:59.130Z,5.35
2018-12-23T06:09:56.688Z,5.38
2018-12-23T06:13:37.188Z,5.37
2018-12-23T06:17:45.341Z,5.36
2018-12-23T06:22:43.848Z,5.38
2018-12-23T06:26:59.287Z,5.36
2018-12-23T06:28:06.134Z,5.36
2018-12-23T06:32:03.803Z,5.42
2018-12-23T06:36:26.535Z,5.41
2018-12-23T06:38:03.129Z,5.42
2018-12-23T06:40:29.602Z,5.41
2018-12-23T06:46:00.248Z,5.40
2018-12-23T06:49:56.564Z,5.42
2018-12-23T06:52:13.241Z,5.40
2018-12-23T06:54:08.318Z,5.40
2018-12-23T06:56:04.285Z,5.41
2018-12-23T07:01:34.706Z,5.48
2018-12-23T07:05:42.271Z,5.48
2018-12-23T07:07:30.028Z,5.50
2018-12-23T07:11:35.931Z,5.51
2018-12-23T07:20:56.444Z,5.58
2018-12-23T07:22:33.938Z,5.57
2018-12-23T07:24:10.104Z,5.57
2018-12-23T07:27:55.904Z,5.58
2018-12-23T07:30:22.635Z,5.59
2018-12-23T07:32:07.321Z,5.58
2018-12-23T07:33:54.499Z,5.60
2018-12-23T07:39:45.623Z,5.61
2018-12-23T07:45:29.889Z,5.56
2018-12-23T07:51:15.903Z,5.55
2018-12-23T07:53:05.949Z,5.56
2018-12-23T07:54:40.413Z,5.54
2018-12-23T07:56:16.358Z,5.57
2018-12-23T07:57:52.083Z,5.59
2018-12-23T07:59:28.807Z,5.57
2018-12-23T08:01:35.063Z,5.58
2018-12-23T08:03:54.057Z,5.62
2018-12-23T08:09:51.799Z,5.56
2018-12-23T08:11:33.074Z,5.60
2018-12-23T08:24:57.047Z,5.62
2018-12-23T08:30:47.143Z,5.63
2018-12-23T08:32:41.970Z,5.63
2018-12-23T08:34:17.869Z,5.64
2018-12-23T08:36:29.528Z,5.67
2018-12-23T08:38:06.175Z,5.72
2018-12-23T08:39:53.843Z,5.67
2018-12-23T08:42:08.654Z,5.71
2018-12-23T08:44:19.312Z,5.66
2018-12-23T08:46:01.973Z,5.73
2018-12-23T08:49:52.688Z,5.68
2018-12-23T08:51:29.156Z,5.73
2018-12-23T08:53:08.339Z,5.75
2018-12-23T08:54:44.700Z,5.66
2018-12-23T08:56:20.454Z,5.78
2018-12-23T08:57:57.854Z,5.67
2018-12-23T08:59:53.272Z,5.66
2018-12-23T09:04:25.564Z,5.72
2018-12-23T09:08:44.042Z,5.72
2018-12-23T09:10:23.209Z,5.73
2018-12-23T09:12:07.936Z,5.71
2018-12-23T09:13:47.342Z,5.75
2018-12-23T09:15:28.014Z,5.74
2018-12-23T09:19:37.606Z,5.74
2018-12-23T09:21:24.842Z,5.84
2018-12-23T09:23:36.028Z,5.80
2018-12-23T09:25:11.795Z,5.76
2018-12-23T09:26:48.877Z,5.76
2018-12-23T09:28:26.826Z,5.75
2018-12-23T09:32:04.707Z,5.75
2018-12-23T09:33:52.718Z,5.80
2018-12-23T09:35:40.155Z,5.85
2018-12-23T09:37:27.988Z,5.92
2018-12-23T09:39:07.585Z,5.87
2018-12-23T09:40:43.970Z,5.87
2018-12-23T09:42:23.752Z,5.88
2018-12-23T09:43:59.597Z,5.85
2018-12-23T09:50:08.323Z,5.85
2018-12-23T09:52:13.601Z,5.88
2018-12-23T09:55:56.281Z,5.95
2018-12-23T09:57:43.943Z,6.00
2018-12-23T09:59:22.915Z,6.03
2018-12-23T10:01:13.301Z,6.06
2018-12-23T10:03:28.627Z,5.96
2018-12-23T10:07:38.105Z,5.94
2018-12-23T10:11:40.160Z,5.91
2018-12-23T10:13:57.133Z,5.80
2018-12-23T10:15:44.565Z,5.91
2018-12-23T10:17:35.255Z,5.96
2018-12-23T10:23:29.767Z,6.02
2018-12-23T10:25:05.663Z,5.96
2018-12-23T10:26:46.830Z,5.90
2018-12-23T10:28:33.185Z,5.89
2018-12-23T10:30:28.859Z,5.95
2018-12-23T10:32:10.745Z,5.97
2018-12-23T10:33:50.054Z,5.90
2018-12-23T10:35:31.911Z,5.97
2018-12-23T10:37:09.051Z,6.00
2018-12-23T10:38:45.651Z,6.00
2018-12-23T10:40:23.550Z,6.05
2018-12-23T10:42:08.505Z,6.03
2018-12-23T10:43:46.847Z,6.07
2018-12-23T10:47:59.802Z,6.04
2018-12-23T10:49:46.205Z,6.11
2018-12-23T10:51:24.901Z,6.02
2018-12-23T10:53:25.317Z,6.05
2018-12-23T10:55:14.072Z,6.10
2018-12-23T10:56:58.881Z,6.02
2018-12-23T10:58:53.373Z,5.95
2018-12-23T11:06:41.208Z,6.06
2018-12-23T11:10:45.748Z,6.10
2018-12-23T11:15:07.645Z,6.07
2018-12-23T11:16:41.269Z,6.05
2018-12-23T11:21:03.473Z,6.07
2018-12-23T11:22:45.192Z,6.05
2018-12-23T11:24:25.335Z,6.14
2018-12-23T11:26:05.018Z,6.14
2018-12-23T11:27:46.119Z,6.13
2018-12-23T11:29:23.550Z,6.07
2018-12-23T11:34:41.449Z,6.19
2018-12-23T11:36:28.830Z,6.14
2018-12-23T11:42:36.398Z,6.11
2018-12-23T11:46:15.795Z,6.16
2018-12-23T11:48:02.299Z,6.20
2018-12-23T11:49:49.982Z,6.07
2018-12-23T11:52:19.843Z,6.13
2018-12-23T11:59:21.671Z,6.11
2018-12-23T12:01:09.117Z,6.00
2018-12-23T12:03:34.069Z,5.86
2018-12-23T12:11:47.161Z,5.92
2018-12-23T12:15:15.746Z,5.92
2018-12-23T12:16:58.802Z,5.94
2018-12-23T12:19:14.651Z,5.91
2018-12-23T12:24:49.341Z,5.89
2018-12-23T12:33:32.670Z,5.80
2018-12-23T12:37:45.208Z,5.76
2018-12-23T12:41:33.483Z,5.85
2018-12-23T12:46:39.925Z,5.76
2018-12-23T12:48:19.983Z,5.88
2018-12-23T12:50:20.819Z,5.83
2018-12-23T12:51:57.769Z,5.75
2018-12-23T12:57:50.275Z,5.66
2018-12-23T12:59:30.283Z,5.70
2018-12-23T13:01:40.259Z,5.62
2018-12-23T13:03:56.336Z,5.59
2018-12-23T13:06:03.623Z,5.67
2018-12-23T13:08:01.430Z,5.66
2018-12-23T13:09:30.068Z,5.67
2018-12-23T13:11:20.628Z,5.65
2018-12-23T13:13:05.573Z,5.62
2018-12-23T13:14:42.835Z,5.64
2018-12-23T13:21:19.268Z,5.58
2018-12-23T13:26:58.566Z,5.56
2018-12-23T13:35:17.621Z,5.51
2018-12-23T13:36:56.815Z,5.54
2018-12-23T13:41:27.359Z,5.50
2018-12-23T13:43:42.700Z,5.53
2018-12-23T13:46:08.062Z,5.51
2018-12-23T13:48:15.190Z,5.50
2018-12-23T13:50:42.230Z,5.46
2018-12-23T13:52:56.437Z,5.49
2018-12-23T13:55:09.809Z,5.43
2018-12-23T13:57:33.463Z,5.42
2018-12-23T14:00:19.235Z,5.44
2018-12-23T14:02:04.026Z,5.51
2018-12-23T14:06:54.248Z,5.51
2018-12-23T14:09:00.610Z,5.55
2018-12-23T14:11:22.890Z,5.53
2018-12-23T14:15:04.600Z,5.54
2018-12-23T14:16:53.378Z,5.41
2018-12-23T14:18:38.507Z,5.49
2018-12-23T14:20:21.451Z,5.50
2018-12-23T14:22:06.682Z,5.61
2018-12-23T14:23:44.982Z,5.65
2018-12-23T14:25:21.353Z,5.65
2018-12-23T14:28:58.381Z,5.67
2018-12-23T14:31:07.888Z,5.65
2018-12-23T14:35:07.830Z,5.64
2018-12-23T14:36:55.474Z,5.64
2018-12-23T14:45:19.072Z,5.64
2018-12-23T14:47:07.433Z,5.69
2018-12-23T14:48:45.391Z,5.73
2018-12-23T14:50:24.531Z,5.65
2018-12-23T14:52:02.150Z,5.65
2018-12-23T14:53:38.652Z,5.65
2018-12-23T14:55:48.192Z,5.68
2018-12-23T14:57:33.929Z,5.68
2018-12-23T15:03:44.672Z,5.60
2018-12-23T15:06:02.642Z,5.57
2018-12-23T15:07:45.311Z,5.56
2018-12-23T15:09:24.475Z,5.59
2018-12-23T15:11:10.330Z,5.52
2018-12-23T15:12:49.133Z,5.47
2018-12-23T15:14:25.645Z,5.45
2018-12-23T15:16:03.419Z,5.47
2018-12-23T15:17:39.148Z,5.46
2018-12-23T15:19:15.764Z,5.45
2018-12-23T15:20:52.208Z,5.52
2018-12-23T15:22:31.490Z,5.55
2018-12-23T15:24:08.125Z,5.51
2018-12-23T15:25:48.437Z,5.48
2018-12-23T15:27:30.638Z,5.49
2018-12-23T15:29:10.582Z,5.49
2018-12-23T15:30:53.512Z,5.47
2018-12-23T15:32:33.649Z,5.47
2018-12-23T15:34:15.764Z,5.43
2018-12-23T15:35:57.943Z,5.44
2018-12-23T15:37:37.329Z,5.43
2018-12-23T15:39:20.132Z,5.42
2018-12-23T15:41:27.846Z,5.49
2018-12-23T15:43:09.342Z,5.47
2018-12-23T15:44:47.977Z,5.53
2018-12-23T15:53:30.523Z,5.45
2018-12-23T15:55:19.900Z,5.47
2018-12-23T16:01:31.368Z,5.43
2018-12-23T16:03:14.362Z,5.44
2018-12-23T16:04:57.723Z,5.43
2018-12-23T16:06:36.417Z,5.44
2018-12-23T16:08:54.777Z,5.50
2018-12-23T16:10:49.093Z,5.49
2018-12-23T16:18:52.058Z,5.52
2018-12-23T16:22:47.508Z,5.52
2018-12-23T16:27:11.066Z,5.50
2018-12-23T16:28:53.914Z,5.46
2018-12-23T16:35:06.544Z,5.50
2018-12-23T16:36:52.039Z,5.51
2018-12-23T16:38:32.552Z,5.53
2018-12-23T16:40:16.246Z,5.53
2018-12-23T16:41:56.403Z,5.47
2018-12-23T16:43:39.334Z,5.50
2018-12-23T16:47:37.454Z,5.56
2018-12-23T16:49:18.681Z,5.57
2018-12-23T16:51:26.478Z,5.53
2018-12-23T16:59:21.265Z,5.47
2018-12-23T17:01:08.514Z,5.46
2018-12-23T17:02:57.355Z,5.58
2018-12-23T17:04:46.265Z,5.58
2018-12-23T17:07:00.038Z,5.51
2018-12-23T17:08:57.162Z,5.56
2018-12-23T17:10:47.438Z,5.53
2018-12-23T17:12:37.574Z,5.51
2018-12-23T17:14:24.807Z,5.54
2018-12-23T17:16:42.827Z,5.50
2018-12-23T17:18:16.332Z,5.54
2018-12-23T17:19:41.825Z,5.53
2018-12-23T17:22:13.455Z,5.48
2018-12-23T17:23:57.870Z,5.50
2018-12-23T17:26:11.608Z,5.57
2018-12-23T17:27:59.789Z,5.51
2018-12-23T17:29:51.037Z,5.49
2018-12-23T17:31:35.204Z,5.49
2018-12-23T17:33:14.244Z,5.53
2018-12-23T17:34:50.002Z,5.51
2018-12-23T17:36:28.305Z,5.51
2018-12-23T17:38:33.427Z,5.55
2018-12-23T17:40:16.455Z,5.57
2018-12-23T17:41:49.020Z,5.50
2018-12-23T17:43:47.105Z,5.51
2018-12-23T17:45:50.236Z,5.55
2018-12-23T17:48:06.078Z,5.50
2018-12-23T17:49:56.326Z,5.48
2018-12-23T17:55:32.575Z,5.49
2018-12-23T17:57:11.084Z,5.48
2018-12-23T17:58:49.209Z,5.47
2018-12-23T18:01:21.760Z,5.50
2018-12-23T18:02:57.940Z,5.45
2018-12-23T18:07:09.389Z,5.48
2018-12-23T18:17:56.745Z,5.54
2018-12-23T18:19:43.177Z,5.52
2018-12-23T18:21:35.494Z,5.55
2018-12-23T18:23:33.821Z,5.54
2018-12-23T18:25:33.691Z,5.52
2018-12-23T18:34:16.967Z,5.62
2018-12-23T18:40:07.316Z,5.55
2018-12-23T18:44:30.590Z,5.58
2018-12-23T18:46:17.853Z,5.54
2018-12-23T18:50:53.185Z,5.57
2018-12-23T18:53:18.901Z,5.61
2018-12-23T18:54:51.265Z,5.63
2018-12-23T19:13:01.660Z,5.80
2018-12-23T19:18:34.533Z,5.76
2018-12-23T19:20:30.898Z,5.83
2018-12-23T19:22:46.585Z,5.85
2018-12-23T19:25:21.364Z,5.78
2018-12-23T19:27:35.466Z,5.82
2018-12-23T19:29:23.552Z,5.87
2018-12-23T19:31:37.523Z,5.85
2018-12-23T19:33:56.658Z,5.83
2018-12-23T19:36:10.493Z,5.87
2018-12-23T19:38:30.412Z,5.91
2018-12-23T19:40:55.798Z,5.97
2018-12-23T19:43:06.302Z,6.01
2018-12-23T19:45:22.977Z,5.98
2018-12-23T19:50:40.036Z,5.97
2018-12-23T19:52:43.249Z,5.97
2018-12-23T19:54:58.897Z,5.94
2018-12-23T19:57:38.253Z,5.93
2018-12-23T20:00:25.016Z,5.89
2018-12-23T20:02:37.523Z,5.89
2018-12-23T20:04:24.623Z,5.88
2018-12-23T20:07:02.118Z,5.87
2018-12-23T20:08:57.753Z,5.87
2018-12-23T20:11:22.511Z,5.87
2018-12-23T20:13:39.470Z,5.87
2018-12-23T20:15:54.342Z,5.88
2018-12-23T20:17:22.209Z,5.86
2018-12-23T20:27:05.650Z,5.90
2018-12-23T20:29:19.833Z,5.89
2018-12-23T20:34:09.799Z,5.91
2018-12-23T20:35:58.687Z,5.91
2018-12-23T20:40:36.436Z,5.91
2018-12-23T20:42:51.752Z,5.94
2018-12-23T20:44:43.793Z,5.91
2018-12-23T20:46:56.449Z,5.94
2018-12-23T20:49:01.775Z,5.91
2018-12-23T20:50:55.355Z,5.91
2018-12-23T20:53:10.892Z,5.92
2018-12-23T20:55:24.685Z,5.89
2018-12-23T21:00:00.616Z,5.88
2018-12-23T21:02:14.998Z,5.91
2018-12-23T21:04:45.020Z,5.91
2018-12-23T21:09:08.701Z,5.80
2018-12-23T21:11:24.981Z,5.74
2018-12-23T21:13:28.711Z,5.67
2018-12-23T21:15:44.433Z,5.61
2018-12-23T21:17:59.716Z,5.62
2018-12-23T21:20:17.170Z,5.45
2018-12-23T21:22:31.127Z,5.48
2018-12-23T21:24:48.210Z,5.40
2018-12-23T21:27:20.610Z,5.32
2018-12-23T21:31:59.794Z,4.99
2018-12-23T21:34:10.970Z,4.76
2018-12-23T21:36:03.079Z,4.74
2018-12-23T21:38:18.671Z,4.65
2018-12-23T21:40:47.807Z,4.64
2018-12-23T21:43:05.412Z,4.58
2018-12-23T21:45:06.494Z,4.45
2018-12-23T21:47:19.897Z,4.32
2018-12-23T21:51:55.297Z,4.19
2018-12-23T21:53:42.186Z,4.14
2018-12-23T22:02:48.340Z,4.08
2018-12-23T22:05:01.910Z,4.10
2018-12-23T22:06:49.849Z,4.05
2018-12-23T22:09:04.103Z,3.94
2018-12-23T22:11:17.863Z,3.95
2018-12-23T22:13:31.384Z,3.90
2018-12-23T22:15:19.654Z,3.85
2018-12-23T22:17:09.144Z,3.84
2018-12-23T22:18:59.688Z,3.76
2018-12-23T22:22:49.394Z,3.69
2018-12-23T22:24:58.300Z,3.70
2018-12-23T22:30:31.191Z,3.49
2018-12-23T22:32:09.435Z,3.44
2018-12-23T22:34:07.882Z,3.48
2018-12-23T22:36:51.444Z,3.44
2018-12-23T22:37:44.755Z,3.41
2018-12-23T22:39:23.132Z,3.45
2018-12-23T22:41:41.463Z,3.44
2018-12-23T22:43:16.513Z,3.46
2018-12-23T22:47:13.568Z,3.37
2018-12-23T22:49:06.469Z,3.33
2018-12-23T22:53:33.501Z,3.38
2018-12-23T22:57:48.482Z,3.32
2018-12-23T22:59:24.651Z,3.35
2018-12-23T23:01:20.258Z,3.33
2018-12-23T23:04:52.277Z,3.34
2018-12-23T23:08:36.731Z,3.34
2018-12-23T23:10:14.343Z,3.33
2018-12-23T23:12:02.811Z,3.31
2018-12-23T23:14:01.091Z,3.29
2018-12-23T23:15:40.465Z,3.29
2018-12-23T23:17:19.476Z,3.30
2018-12-23T23:19:24.644Z,3.32
2018-12-23T23:21:12.462Z,3.27
2018-12-23T23:23:23.477Z,3.27
2018-12-23T23:25:08.164Z,3.28
2018-12-23T23:26:44.611Z,3.24
2018-12-23T23:28:20.486Z,3.24
2018-12-23T23:30:16.811Z,3.20
2018-12-23T23:38:02.958Z,3.19
2018-12-23T23:41:48.540Z,3.20
2018-12-23T23:43:42.563Z,3.12
2018-12-23T23:47:08.353Z,3.11
2018-12-23T23:50:41.140Z,3.06
2018-12-23T23:52:29.344Z,3.11
2018-12-23T23:55:52.068Z,3.08
2018-12-23T23:59:11.426Z,3.04
